Time;durP1;ratioP1;P1;durP2;ratioP2;P2;SDS_P1;SDS_P2;PMS_P1;PMS_P2;Temp;Humidity;BMP_temperature;BMP_pressure;BME280_temperature;BME280_humidity;BME280_pressure;Samples;Min_cycle;Max_cycle;Signal;HPM_P1;HPM_P2
2023/09/30 00:00:20;;;;;;;16.38;9.35;;;;;;;15.63;58.61;99721.50;6116528;23;20024;-91
2023/09/30 00:02:45;;;;;;;15.18;8.73;;;;;;;15.70;58.61;99730.06;6116629;23;20013;-92
2023/09/30 00:05:11;;;;;;;15.68;8.68;;;;;;;15.36;59.82;99701.25;6139936;23;20520;-92
2023/09/30 00:07:37;;;;;;;30.92;9.60;;;;;;;15.47;59.62;99723.63;6117463;23;20433;-92
2023/09/30 00:10:04;;;;;;;16.30;8.70;;;;;;;15.30;60.04;99714.06;6114966;23;20016;-93
2023/09/30 00:12:29;;;;;;;17.08;9.20;;;;;;;15.38;60.22;99723.47;6116698;23;20078;-94
2023/09/30 00:14:55;;;;;;;18.63;9.23;;;;;;;15.13;60.82;99708.31;6116233;23;20048;-93
2023/09/30 00:17:21;;;;;;;13.30;9.07;;;;;;;15.01;61.01;99705.22;6141715;23;20422;-93
2023/09/30 00:19:48;;;;;;;13.93;8.82;;;;;;;14.98;61.04;99706.59;6140735;23;20004;-94
2023/09/30 00:22:13;;;;;;;12.70;9.27;;;;;;;14.95;61.92;99710.69;6116079;23;20073;-93
2023/09/30 00:24:39;;;;;;;13.00;8.93;;;;;;;14.97;62.04;99717.75;6115535;23;19997;-93
2023/09/30 00:27:04;;;;;;;17.67;9.65;;;;;;;14.86;62.23;99711.63;6116291;23;20150;-93
2023/09/30 00:29:30;;;;;;;12.77;8.93;;;;;;;14.89;61.69;99708.34;6113635;23;20387;-93
2023/09/30 00:31:56;;;;;;;18.20;9.20;;;;;;;14.87;61.77;99710.53;6115761;23;20009;-93
2023/09/30 00:34:22;;;;;;;17.90;9.23;;;;;;;14.81;62.31;99715.19;6140355;23;20348;-94
2023/09/30 00:36:50;;;;;;;14.70;8.95;;;;;;;14.87;62.14;99721.38;6115657;23;20008;-93
2023/09/30 00:39:16;;;;;;;22.25;9.52;;;;;;;14.73;61.78;99691.41;6117425;23;20005;-93
2023/09/30 00:41:44;;;;;;;16.13;8.65;;;;;;;14.87;62.26;99721.38;6115619;23;20008;-92
2023/09/30 00:44:11;;;;;;;28.75;9.15;;;;;;;14.73;62.17;99699.56;6117135;23;20000;-92
2023/09/30 00:46:37;;;;;;;16.00;9.25;;;;;;;14.85;62.17;99723.56;6117080;23;20040;-93
2023/09/30 00:49:03;;;;;;;14.23;7.80;;;;;;;14.82;62.03;99711.41;6115555;23;19997;-93
2023/09/30 00:51:28;;;;;;;15.20;8.60;;;;;;;14.92;61.80;99726.72;6117015;23;20056;-93
2023/09/30 00:53:58;;;;;;;15.68;9.00;;;;;;;14.69;61.87;99691.22;6116737;23;19997;-93
2023/09/30 00:56:26;;;;;;;18.58;11.20;;;;;;;14.78;61.78;99687.88;6139091;23;20001;-94
2023/09/30 00:58:51;;;;;;;19.58;10.48;;;;;;;14.79;61.74;99687.56;6114580;23;20009;-93
2023/09/30 01:01:17;;;;;;;20.85;10.05;;;;;;;14.66;62.14;99691.78;6115021;23;20012;-93
2023/09/30 01:03:42;;;;;;;17.08;10.02;;;;;;;14.73;62.45;99724.78;6115374;23;20088;-94
2023/09/30 01:06:09;;;;;;;17.48;10.30;;;;;;;14.59;62.40;99707.56;6117022;23;20001;-94
2023/09/30 01:08:35;;;;;;;16.17;10.10;;;;;;;14.67;62.37;99722.38;6115174;23;20001;-94
2023/09/30 01:11:01;;;;;;;16.52;9.93;;;;;;;14.62;62.42;99717.81;6140452;23;20001;-94
2023/09/30 01:13:36;;;;;;;15.07;9.77;;;;;;;14.72;62.29;99715.00;6116520;23;20008;-95
2023/09/30 01:16:09;;;;;;;15.88;9.88;;;;;;;14.61;62.18;99701.84;6116680;23;20028;-94
2023/09/30 01:18:36;;;;;;;15.80;9.45;;;;;;;14.65;62.12;99702.88;6117544;23;20012;-94
2023/09/30 01:21:04;;;;;;;16.70;9.52;;;;;;;14.64;62.20;99702.09;6141051;23;20160;-95
2023/09/30 01:23:33;;;;;;;18.10;10.10;;;;;;;14.59;62.25;99721.13;6139787;23;20005;-95
2023/09/30 01:26:11;;;;;;;12.93;9.32;;;;;;;14.53;62.32;99704.06;6116113;23;20088;-94
2023/09/30 01:28:38;;;;;;;16.30;9.20;;;;;;;14.62;62.10;99707.00;6111604;23;20017;-94
2023/09/30 01:31:14;;;;;;;15.35;9.48;;;;;;;14.80;62.14;99723.63;6124588;23;20065;-91
2023/09/30 01:33:40;;;;;;;14.52;8.63;;;;;;;14.70;62.30;99721.81;6145717;23;20020;-94
2023/09/30 01:36:07;;;;;;;17.63;9.77;;;;;;;14.55;62.22;99707.34;6097572;23;19990;-93
2023/09/30 01:38:32;;;;;;;13.45;9.13;;;;;;;14.45;62.70;99720.16;6109137;23;20066;-93
2023/09/30 01:40:58;;;;;;;19.40;9.07;;;;;;;14.48;62.60;99720.38;6134472;23;20345;-92
2023/09/30 01:43:23;;;;;;;12.63;9.07;;;;;;;14.49;62.52;99718.47;6108248;23;20013;-92
2023/09/30 01:45:49;;;;;;;16.85;8.77;;;;;;;14.54;62.25;99721.13;6080325;23;20002;-93
2023/09/30 01:48:15;;;;;;;14.95;8.75;;;;;;;14.40;62.28;99691.22;6083294;23;19988;-93
2023/09/30 01:50:40;;;;;;;14.38;8.77;;;;;;;14.58;62.49;99715.97;6083996;23;20337;-93
2023/09/30 01:53:06;;;;;;;15.63;9.23;;;;;;;14.48;62.41;99700.59;6082466;23;20009;-93
2023/09/30 01:55:35;;;;;;;16.05;8.77;;;;;;;14.62;62.39;99722.44;6082681;23;20345;-92
2023/09/30 01:58:00;;;;;;;12.52;9.23;;;;;;;14.53;62.50;99708.69;6106000;23;20030;-93
2023/09/30 02:00:28;;;;;;;16.40;9.38;;;;;;;14.51;62.45;99713.59;6080281;23;20029;-94
2023/09/30 02:02:56;;;;;;;17.25;9.90;;;;;;;14.52;62.71;99717.91;6079947;23;20001;-92
2023/09/30 02:05:23;;;;;;;15.15;8.93;;;;;;;14.46;62.64;99714.41;6104698;23;20049;-93
2023/09/30 02:07:49;;;;;;;11.57;8.63;;;;;;;14.43;62.65;99701.47;6104442;23;20107;-93
2023/09/30 02:10:15;;;;;;;15.63;8.55;;;;;;;14.49;62.69;99711.16;6080274;23;20356;-93
2023/09/30 02:12:41;;;;;;;19.23;9.18;;;;;;;14.51;62.81;99721.72;6104251;23;20081;-93
2023/09/30 02:15:07;;;;;;;11.88;8.57;;;;;;;14.43;62.83;99719.63;6105186;23;20002;-92
2023/09/30 02:17:33;;;;;;;16.73;8.80;;;;;;;14.42;62.84;99716.13;6080249;23;19998;-92
2023/09/30 02:19:58;;;;;;;17.83;9.57;;;;;;;14.34;63.04;99706.69;6104735;23;20006;-93
2023/09/30 02:22:24;;;;;;;13.25;9.30;;;;;;;14.33;63.31;99718.59;6080091;23;20120;-94
2023/09/30 02:24:54;;;;;;;15.05;9.65;;;;;;;14.21;63.13;99690.28;6104829;23;20088;-93
2023/09/30 02:27:19;;;;;;;13.48;8.98;;;;;;;14.19;63.69;99704.09;6110289;23;20023;-94
2023/09/30 02:29:45;;;;;;;11.25;8.55;;;;;;;14.27;63.46;99719.75;6108239;23;19978;-94
2023/09/30 02:32:10;;;;;;;17.13;9.73;;;;;;;14.20;63.51;99713.06;6109817;23;20021;-93
2023/09/30 02:34:36;;;;;;;15.52;9.57;;;;;;;14.15;63.80;99716.59;6133149;23;19997;-92
2023/09/30 02:37:01;;;;;;;17.63;9.60;;;;;;;14.10;64.11;99712.03;6110336;23;20072;-91
2023/09/30 02:39:27;;;;;;;17.50;9.88;;;;;;;14.08;64.13;99708.00;6108604;23;20010;-92
2023/09/30 02:41:52;;;;;;;16.27;9.38;;;;;;;14.08;64.09;99705.28;6109576;23;20009;-92
2023/09/30 02:44:18;;;;;;;12.30;9.32;;;;;;;14.07;64.21;99711.78;6109728;23;20013;-92
2023/09/30 02:46:43;;;;;;;16.88;10.43;;;;;;;14.03;64.07;99714.28;6134080;23;19997;-93
2023/09/30 02:49:09;;;;;;;16.98;9.45;;;;;;;14.03;64.30;99716.16;6109390;23;20428;-92
2023/09/30 02:51:34;;;;;;;18.35;10.07;;;;;;;13.80;64.66;99704.97;6136147;23;19997;-92
2023/09/30 02:54:00;;;;;;;13.82;9.57;;;;;;;13.80;64.72;99704.97;6134687;23;20006;-93
2023/09/30 02:56:28;;;;;;;13.60;9.75;;;;;;;13.92;64.66;99715.44;6108966;23;20025;-93
2023/09/30 02:58:53;;;;;;;22.38;10.70;;;;;;;13.87;64.63;99713.56;6109833;23;20006;-92
2023/09/30 03:01:20;;;;;;;15.95;10.18;;;;;;;13.88;65.03;99722.50;6108535;23;20157;-93
2023/09/30 03:03:46;;;;;;;15.82;10.80;;;;;;;13.77;65.27;99708.22;6108816;23;20053;-92
2023/09/30 03:06:14;;;;;;;15.50;10.82;;;;;;;13.66;65.43;99709.41;6108917;23;20088;-93
2023/09/30 03:08:40;;;;;;;18.00;10.30;;;;;;;13.69;65.43;99712.34;6108061;23;20004;-91
2023/09/30 03:11:06;;;;;;;22.48;10.90;;;;;;;13.67;65.10;99714.50;6108812;23;20001;-92
2023/09/30 03:13:32;;;;;;;21.77;10.70;;;;;;;13.61;65.62;99710.22;6109124;23;19997;-92
2023/09/30 03:15:57;;;;;;;17.92;11.05;;;;;;;13.67;65.33;99725.34;6109074;23;20004;-93
2023/09/30 03:18:26;;;;;;;20.33;11.13;;;;;;;13.75;65.19;99723.94;6108144;23;20001;-93
2023/09/30 03:20:59;;;;;;;21.90;10.98;;;;;;;13.66;65.32;99714.81;6109911;23;20009;-93
2023/09/30 03:23:30;;;;;;;17.33;10.95;;;;;;;13.75;65.30;99730.16;6110580;23;20001;-93
2023/09/30 03:25:58;;;;;;;19.20;11.57;;;;;;;13.65;65.54;99718.59;6110599;23;20067;-93
2023/09/30 03:28:24;;;;;;;17.05;10.95;;;;;;;13.67;65.63;99728.03;6108397;23;20010;-92
2023/09/30 03:30:50;;;;;;;18.65;10.15;;;;;;;13.71;65.39;99728.28;6109247;23;20001;-93
2023/09/30 03:33:15;;;;;;;14.60;10.73;;;;;;;13.79;65.25;99738.53;6108889;23;19996;-93
2023/09/30 03:35:41;;;;;;;17.70;10.65;;;;;;;13.83;65.04;99727.97;6108727;23;20010;-93
2023/09/30 03:38:09;;;;;;;15.82;10.38;;;;;;;13.92;64.88;99729.78;6110223;23;20010;-93
2023/09/30 03:40:38;;;;;;;16.33;10.55;;;;;;;13.75;65.06;99726.66;6110600;23;19997;-93
2023/09/30 03:43:06;;;;;;;15.65;9.98;;;;;;;13.72;65.24;99719.09;6110938;23;20006;-93
2023/09/30 03:45:32;;;;;;;22.45;9.98;;;;;;;13.69;65.29;99719.66;6108738;23;20019;-93
2023/09/30 03:47:58;;;;;;;20.02;9.68;;;;;;;13.60;65.46;99721.34;6110282;23;20062;-92
2023/09/30 03:50:24;;;;;;;16.05;10.38;;;;;;;13.54;65.88;99736.78;6110447;23;20009;-92
2023/09/30 03:52:49;;;;;;;17.67;10.50;;;;;;;13.44;65.97;99729.53;6110678;23;20002;-93
2023/09/30 03:55:17;;;;;;;13.90;10.05;;;;;;;13.44;65.70;99720.59;6110219;23;20005;-91
2023/09/30 03:57:43;;;;;;;18.75;10.82;;;;;;;13.31;66.35;99712.00;6110274;23;20002;-94
2023/09/30 04:00:15;;;;;;;16.92;9.68;;;;;;;13.40;66.25;99725.75;6109963;23;20006;-94
2023/09/30 04:02:42;;;;;;;20.38;11.32;;;;;;;13.47;65.99;99739.81;6136339;23;20001;-94
2023/09/30 04:05:11;;;;;;;18.80;10.88;;;;;;;13.41;66.41;99732.81;6110488;23;20001;-93
2023/09/30 04:07:36;;;;;;;24.95;12.25;;;;;;;13.32;66.46;99729.88;6110862;23;20353;-94
2023/09/30 04:10:04;;;;;;;28.50;13.05;;;;;;;13.31;67.04;99730.94;6110230;23;19993;-94
2023/09/30 04:12:29;;;;;;;18.38;11.82;;;;;;;13.27;66.84;99731.75;6110837;23;20002;-93
2023/09/30 04:14:55;;;;;;;23.73;12.15;;;;;;;13.29;66.84;99737.72;6109768;23;20094;-93
2023/09/30 04:17:22;;;;;;;21.45;12.85;;;;;;;13.25;66.76;99726.63;6109265;23;20006;-94
2023/09/30 04:19:51;;;;;;;28.40;14.80;;;;;;;13.21;66.78;99740.97;6108672;23;20441;-94
2023/09/30 04:22:16;;;;;;;25.27;13.02;;;;;;;13.12;66.97;99733.44;6111340;23;20005;-93
2023/09/30 04:24:45;;;;;;;29.00;13.60;;;;;;;13.07;67.34;99738.88;6109535;23;20005;-93
2023/09/30 04:27:11;;;;;;;25.20;14.48;;;;;;;13.08;67.30;99742.38;6134415;23;20026;-93
2023/09/30 04:29:37;;;;;;;29.17;14.40;;;;;;;13.21;67.36;99763.41;6110188;23;20028;-93
2023/09/30 04:32:04;;;;;;;30.85;13.63;;;;;;;13.02;66.98;99724.56;6110975;23;20005;-93
2023/09/30 04:34:30;;;;;;;23.73;12.77;;;;;;;13.07;67.01;99738.03;6109127;23;20021;-92
2023/09/30 04:36:56;;;;;;;27.95;13.45;;;;;;;12.96;67.56;99755.38;6110579;23;20004;-93
2023/09/30 04:39:22;;;;;;;21.17;12.23;;;;;;;12.86;67.75;99748.09;6109592;23;20016;-93
2023/09/30 04:41:47;;;;;;;18.67;11.18;;;;;;;12.93;67.58;99752.16;6133970;23;20080;-94
2023/09/30 04:44:14;;;;;;;17.05;11.20;;;;;;;12.94;67.44;99756.47;6109389;23;20044;-93
2023/09/30 04:46:40;;;;;;;24.92;11.48;;;;;;;13.04;67.37;99760.22;6109045;23;20341;-95
2023/09/30 04:49:07;;;;;;;22.83;11.05;;;;;;;13.11;67.30;99750.75;6110649;23;20001;-93
2023/09/30 04:51:34;;;;;;;27.30;12.30;;;;;;;13.28;66.82;99769.34;6110777;23;20029;-93
2023/09/30 04:53:59;;;;;;;25.13;12.30;;;;;;;13.22;66.97;99754.22;6109605;23;20011;-91
2023/09/30 04:56:25;;;;;;;22.30;12.48;;;;;;;13.34;66.34;99748.50;6110338;23;20009;-93
2023/09/30 04:58:51;;;;;;;25.00;11.65;;;;;;;13.45;66.34;99754.69;6109700;23;20475;-93
2023/09/30 05:01:18;;;;;;;23.17;11.40;;;;;;;13.37;66.36;99753.38;6110398;23;20001;-92
2023/09/30 05:03:44;;;;;;;22.90;12.60;;;;;;;13.30;66.93;99760.97;6111475;23;20005;-92
2023/09/30 05:06:10;;;;;;;19.38;13.60;;;;;;;13.38;66.90;99771.22;6109966;23;20004;-92
2023/09/30 05:08:35;;;;;;;19.77;12.15;;;;;;;13.56;66.54;99775.19;6109119;23;19994;-93
2023/09/30 05:11:01;;;;;;;24.70;13.20;;;;;;;13.64;66.13;99763.78;6108670;23;20010;-93
2023/09/30 05:13:29;;;;;;;19.60;11.52;;;;;;;13.66;65.96;99753.50;6110195;23;20321;-93
2023/09/30 05:15:55;;;;;;;18.02;10.38;;;;;;;13.62;66.36;99768.66;6110986;23;19997;-93
2023/09/30 05:18:20;;;;;;;28.83;11.25;;;;;;;13.45;66.35;99758.22;6109191;23;20016;-93
2023/09/30 05:20:46;;;;;;;18.63;10.82;;;;;;;13.39;66.42;99753.09;6109725;23;20429;-94
2023/09/30 05:23:12;;;;;;;21.20;11.52;;;;;;;13.44;66.71;99764.69;6110081;23;20008;-93
2023/09/30 05:25:37;;;;;;;19.35;11.10;;;;;;;13.58;66.27;99770.31;6134143;23;20076;-93
2023/09/30 05:28:04;;;;;;;25.52;16.45;;;;;;;13.42;66.41;99758.75;6110961;23;20013;-93
2023/09/30 05:30:29;;;;;;;18.20;11.48;;;;;;;13.45;66.33;99752.78;6109950;23;20001;-92
2023/09/30 05:32:55;;;;;;;21.67;12.15;;;;;;;13.69;66.17;99777.28;6109815;23;20005;-92
2023/09/30 05:35:22;;;;;;;20.73;12.27;;;;;;;13.72;66.14;99775.94;6110527;23;20012;-92
2023/09/30 05:37:52;;;;;;;21.10;12.32;;;;;;;13.60;65.94;99762.72;6111564;23;20029;-92
2023/09/30 05:40:30;;;;;;;26.77;13.38;;;;;;;13.67;66.27;99778.66;6112496;23;20012;-94
2023/09/30 05:42:59;;;;;;;27.73;14.68;;;;;;;13.62;66.21;99786.81;6114263;23;20005;-93
2023/09/30 05:45:26;;;;;;;22.02;13.90;;;;;;;13.69;65.91;99776.47;6109628;23;20067;-93
2023/09/30 05:47:52;;;;;;;21.00;13.85;;;;;;;13.76;65.72;99777.00;6110387;23;20009;-91
2023/09/30 05:50:23;;;;;;;27.45;13.35;;;;;;;13.73;66.15;99791.88;6110851;23;20012;-94
2023/09/30 05:52:53;;;;;;;50.00;25.25;;;;;;;13.51;66.23;99767.91;6113965;23;20456;-94
2023/09/30 05:55:20;;;;;;;23.58;13.63;;;;;;;13.55;66.07;99776.28;6112504;23;20455;-95
2023/09/30 05:57:48;;;;;;;25.95;14.10;;;;;;;13.64;66.31;99798.16;6111573;23;20357;-95
2023/09/30 06:00:40;;;;;;;23.67;12.82;;;;;;;13.57;66.33;99768.69;6112674;23;20006;-93
2023/09/30 06:03:06;;;;;;;25.77;12.57;;;;;;;13.79;65.90;99792.66;6141629;23;20008;-93
2023/09/30 06:05:33;;;;;;;29.02;13.75;;;;;;;13.79;65.86;99781.03;6112754;23;20001;-95
2023/09/30 06:08:02;;;;;;;30.15;12.75;;;;;;;13.86;65.00;99770.69;6111738;23;20005;-94
2023/09/30 06:10:32;;;;;;;20.05;11.57;;;;;;;14.05;64.64;99787.06;6113795;23;20088;-95
2023/09/30 06:12:58;;;;;;;22.58;11.20;;;;;;;14.09;64.41;99788.97;6162512;23;20001;-96
2023/09/30 06:15:32;;;;;;;20.92;10.40;;;;;;;14.24;64.29;99801.59;6113174;23;20020;-96
2023/09/30 06:18:08;;;;;;;21.73;10.10;;;;;;;14.31;63.75;99777.69;6161681;23;19997;-92
2023/09/30 06:20:36;;;;;;;30.50;10.90;;;;;;;14.41;64.23;99784.13;6137933;23;20080;-94
2023/09/30 06:23:02;;;;;;;18.15;9.32;;;;;;;14.69;63.76;99799.63;6111512;23;20002;-95
2023/09/30 06:29:21;;;;;;;16.23;8.70;;;;;;;14.93;62.65;99801.56;6179678;23;20471;-94
2023/09/30 06:34:25;;;;;;;22.67;12.60;;;;;;;15.22;61.99;99777.09;6149672;22;20024;-96
2023/09/30 06:36:53;;;;;;;19.15;9.45;;;;;;;15.29;61.50;99769.44;6083876;23;20018;-95
2023/09/30 06:39:20;;;;;;;19.77;10.05;;;;;;;15.41;61.20;99789.91;6058360;23;20006;-93
2023/09/30 06:41:46;;;;;;;20.90;9.45;;;;;;;15.67;60.55;99798.53;6081954;23;19998;-93
2023/09/30 06:44:14;;;;;;;14.15;7.78;;;;;;;15.79;60.30;99809.78;6056631;23;20360;-92
2023/09/30 06:46:40;;;;;;;14.60;7.47;;;;;;;15.84;59.66;99781.78;6080784;23;19998;-92
2023/09/30 06:49:05;;;;;;;13.57;7.47;;;;;;;15.99;59.21;99786.97;6058300;23;20002;-93
2023/09/30 06:51:31;;;;;;;16.05;7.78;;;;;;;16.07;58.97;99780.88;6058018;23;20089;-92
2023/09/30 06:53:56;;;;;;;20.90;8.73;;;;;;;16.24;58.40;99802.09;6056592;23;20006;-93
2023/09/30 06:56:22;;;;;;;17.88;9.52;;;;;;;16.32;58.68;99792.47;6059140;23;20008;-93
2023/09/30 07:02:10;;;;;;;14.05;8.40;;;;;;;16.66;57.93;99797.59;6131715;23;20009;-94
2023/09/30 07:04:39;;;;;;;11.15;7.15;;;;;;;16.81;57.44;99806.63;6058539;23;20006;-95
2023/09/30 07:07:04;;;;;;;15.93;8.00;;;;;;;16.70;56.67;99784.22;6056572;23;20021;-93
2023/09/30 07:09:34;;;;;;;10.63;7.93;;;;;;;16.81;56.24;99785.69;6056800;23;19998;-94
2023/09/30 07:12:00;;;;;;;18.52;8.00;;;;;;;17.00;55.77;99790.25;6061118;23;19998;-95
2023/09/30 07:14:25;;;;;;;15.05;7.45;;;;;;;17.19;55.57;99793.69;6058769;23;20061;-94
2023/09/30 07:16:54;;;;;;;11.10;7.00;;;;;;;17.53;55.26;99817.75;6067823;23;20009;-95
2023/09/30 07:19:19;;;;;;;12.45;6.85;;;;;;;17.52;54.37;99785.41;6097643;23;20017;-94
2023/09/30 07:21:46;;;;;;;15.00;7.40;;;;;;;17.82;54.11;99804.91;6069134;23;20006;-94
2023/09/30 07:24:12;;;;;;;11.43;7.43;;;;;;;18.03;53.83;99813.47;6071777;23;20049;-94
2023/09/30 07:26:39;;;;;;;13.13;6.80;;;;;;;18.05;53.67;99787.50;6069532;23;20006;-96
2023/09/30 07:29:05;;;;;;;14.68;7.28;;;;;;;18.14;53.21;99779.41;6061090;23;20057;-95
2023/09/30 07:31:35;;;;;;;14.52;7.82;;;;;;;18.20;53.06;99772.75;6060001;23;20346;-94
2023/09/30 07:34:01;;;;;;;12.43;6.20;;;;;;;18.38;51.94;99787.28;6055286;23;20165;-93
2023/09/30 07:36:29;;;;;;;15.98;6.57;;;;;;;18.52;51.91;99798.13;6078364;23;19987;-93
2023/09/30 07:38:55;;;;;;;13.18;6.07;;;;;;;18.60;51.54;99794.66;6081007;23;20014;-94
2023/09/30 07:41:24;;;;;;;18.30;7.15;;;;;;;18.66;51.40;99789.88;6077948;23;20138;-94
2023/09/30 07:43:50;;;;;;;24.65;7.05;;;;;;;18.92;51.29;99811.84;6080135;23;20002;-94
2023/09/30 07:46:16;;;;;;;15.52;7.55;;;;;;;18.91;51.35;99783.78;6081873;23;20037;-95
2023/09/30 07:48:42;;;;;;;10.50;6.53;;;;;;;19.13;50.96;99796.56;6098351;23;20005;-94
2023/09/30 07:51:34;;;;;;;15.18;6.70;;;;;;;19.16;50.64;99784.19;6121483;23;20058;-94
2023/09/30 07:54:42;;;;;;;14.30;6.43;;;;;;;19.06;50.54;99768.91;6067521;23;20026;-95
2023/09/30 07:58:01;;;;;;;17.70;6.32;;;;;;;19.13;51.16;99779.34;5998572;23;19995;-95
2023/09/30 08:00:30;;;;;;;16.13;11.32;;;;;;;19.34;50.31;99785.88;6020429;23;20018;-95
2023/09/30 08:03:00;;;;;;;16.50;6.35;;;;;;;19.48;49.24;99790.38;6016996;23;20007;-95
2023/09/30 08:05:28;;;;;;;21.30;6.28;;;;;;;19.79;48.97;99810.25;5999818;23;20034;-93
2023/09/30 08:07:54;;;;;;;9.68;4.88;;;;;;;19.95;46.92;99791.47;5978498;23;20001;-93
2023/09/30 08:10:22;;;;;;;18.23;5.40;;;;;;;20.11;46.31;99767.19;5977117;23;20003;-92
2023/09/30 08:12:49;;;;;;;14.07;5.57;;;;;;;20.28;45.84;99780.03;5975877;23;20003;-94
2023/09/30 08:15:20;;;;;;;11.25;4.60;;;;;;;20.58;43.67;99774.69;5976212;23;20022;-93
2023/09/30 08:17:45;;;;;;;8.45;3.95;;;;;;;20.87;42.16;99773.16;5979659;23;20492;-94
2023/09/30 08:20:13;;;;;;;15.30;5.03;;;;;;;21.15;42.79;99782.56;5976521;23;20018;-94
2023/09/30 08:22:40;;;;;;;13.40;4.70;;;;;;;21.35;41.25;99772.81;5974068;23;20005;-93
2023/09/30 08:25:07;;;;;;;15.23;6.80;;;;;;;21.53;40.37;99761.75;5993202;23;20034;-94
2023/09/30 08:27:35;;;;;;;10.30;4.85;;;;;;;21.75;40.24;99763.41;6028688;23;20002;-93
2023/09/30 08:30:04;;;;;;;16.73;4.38;;;;;;;21.83;39.87;99767.19;6028517;23;20066;-93
2023/09/30 08:32:32;;;;;;;8.70;4.18;;;;;;;21.94;39.84;99751.94;6052931;23;20041;-94
2023/09/30 08:35:01;;;;;;;16.95;4.82;;;;;;;22.08;39.09;99754.41;6030289;23;20007;-96
2023/09/30 08:38:04;;;;;;;13.30;5.93;;;;;;;22.21;39.41;99772.53;6059119;23;20043;-93
2023/09/30 08:40:59;;;;;;;10.20;4.20;;;;;;;22.31;38.58;99763.13;6072672;23;20007;-94
2023/09/30 08:43:38;;;;;;;9.80;4.13;;;;;;;22.70;37.69;99780.13;5999879;23;20015;-93
2023/09/30 08:46:11;;;;;;;12.18;4.10;;;;;;;22.64;37.15;99779.56;5973076;23;20004;-96
2023/09/30 08:48:44;;;;;;;10.10;3.70;;;;;;;22.80;36.67;99761.25;5999004;23;20063;-95
2023/09/30 08:51:17;;;;;;;11.48;5.18;;;;;;;22.78;36.19;99760.81;5999482;23;20008;-94
2023/09/30 08:53:44;;;;;;;16.65;4.55;;;;;;;22.95;36.00;99756.25;5999560;23;20008;-94
2023/09/30 08:56:17;;;;;;;6.60;3.50;;;;;;;22.96;35.34;99761.41;5978749;23;20522;-96
2023/09/30 08:58:46;;;;;;;11.02;4.13;;;;;;;23.20;34.83;99768.91;5955285;23;20079;-94
2023/09/30 09:01:12;;;;;;;14.07;4.18;;;;;;;23.16;35.49;99762.50;5951834;23;20019;-95
2023/09/30 09:03:38;;;;;;;10.07;4.35;;;;;;;23.31;36.07;99766.47;5952282;23;20004;-95
2023/09/30 09:06:04;;;;;;;7.43;3.92;;;;;;;23.29;36.29;99744.03;5956636;23;19996;-96
2023/09/30 09:08:30;;;;;;;8.35;4.72;;;;;;;23.48;36.14;99754.44;6023719;23;20003;-94
2023/09/30 09:11:00;;;;;;;11.95;3.80;;;;;;;23.43;35.68;99754.69;6025184;23;20015;-92
2023/09/30 09:13:26;;;;;;;12.50;4.10;;;;;;;23.61;34.84;99755.22;6031742;23;20014;-93
2023/09/30 09:16:08;;;;;;;9.35;3.83;;;;;;;23.67;35.03;99751.06;6083433;23;20016;-94
2023/09/30 09:18:35;;;;;;;9.65;3.97;;;;;;;23.70;33.71;99757.81;6106986;23;20042;-94
2023/09/30 09:21:11;;;;;;;8.35;3.70;;;;;;;23.67;33.22;99758.53;6084103;23;19986;-95
2023/09/30 09:23:41;;;;;;;13.80;3.90;;;;;;;23.63;32.02;99741.91;6086151;23;20009;-93
2023/09/30 09:26:07;;;;;;;7.70;3.55;;;;;;;23.82;32.39;99749.56;6086151;23;20002;-93
2023/09/30 09:28:38;;;;;;;12.40;5.07;;;;;;;23.90;32.19;99745.88;6083456;23;20009;-92
2023/09/30 09:31:36;;;;;;;11.03;3.93;;;;;;;24.12;32.91;99761.06;6083901;23;20002;-92
2023/09/30 09:34:12;;;;;;;7.70;3.50;;;;;;;23.86;31.99;99744.19;6085055;23;20022;-95
2023/09/30 09:36:44;;;;;;;8.95;3.40;;;;;;;23.85;32.32;99745.34;6089316;23;20006;-93
2023/09/30 09:39:15;;;;;;;14.40;3.83;;;;;;;23.79;31.69;99747.53;6109107;23;20006;-94
2023/09/30 09:41:55;;;;;;;10.63;3.88;;;;;;;23.75;31.75;99746.59;6057784;23;20027;-94
2023/09/30 09:44:22;;;;;;;6.70;3.45;;;;;;;23.74;31.99;99751.31;6083959;23;20012;-92
2023/09/30 09:46:52;;;;;;;9.07;3.65;;;;;;;23.69;32.54;99746.03;6084036;23;20002;-94
2023/09/30 09:49:18;;;;;;;11.75;4.05;;;;;;;23.46;32.16;99731.19;6083721;23;20453;-93
2023/09/30 09:51:47;;;;;;;10.63;3.70;;;;;;;23.52;31.72;99730.63;6054232;23;20152;-94
2023/09/30 09:54:14;;;;;;;8.40;3.72;;;;;;;23.57;31.85;99749.63;6055704;23;20017;-95
2023/09/30 09:56:39;;;;;;;8.07;3.92;;;;;;;23.47;31.71;99733.63;6077922;23;20009;-94
2023/09/30 09:59:06;;;;;;;8.25;4.40;;;;;;;23.39;31.85;99721.59;6078208;23;20022;-93
2023/09/30 10:01:34;;;;;;;14.52;3.70;;;;;;;23.42;32.21;99720.09;6077966;23;20002;-95
2023/09/30 10:04:02;;;;;;;13.73;4.90;;;;;;;23.68;32.15;99736.19;6078948;23;20002;-94
2023/09/30 10:06:29;;;;;;;14.15;3.95;;;;;;;23.62;31.74;99715.59;6079172;23;20006;-95
2023/09/30 10:08:58;;;;;;;8.82;3.85;;;;;;;23.66;31.36;99713.75;6102728;23;19994;-94
2023/09/30 10:11:29;;;;;;;9.20;4.00;;;;;;;23.64;31.60;99701.47;6078423;23;20491;-94
2023/09/30 10:14:02;;;;;;;6.95;4.25;;;;;;;23.80;31.92;99716.13;6078479;23;20042;-95
2023/09/30 10:16:52;;;;;;;7.70;4.10;;;;;;;23.78;31.31;99699.16;6083482;23;20018;-96
2023/09/30 10:19:27;;;;;;;9.23;4.28;;;;;;;23.87;31.20;99691.59;6082077;23;20006;-95
2023/09/30 10:22:18;;;;;;;9.43;4.20;;;;;;;24.19;30.70;99719.19;6082145;23;20002;-95
2023/09/30 10:24:56;;;;;;;7.53;4.18;;;;;;;24.05;30.00;99705.03;6105461;23;20062;-96
2023/09/30 10:27:22;;;;;;;9.95;4.20;;;;;;;24.20;30.03;99720.78;6057995;23;20003;-96
2023/09/30 10:30:13;;;;;;;6.75;4.05;;;;;;;24.38;29.68;99715.75;6107012;23;20064;-96
2023/09/30 10:32:51;;;;;;;8.90;3.63;;;;;;;24.43;29.53;99710.00;6113740;23;20057;-96
2023/09/30 10:35:21;;;;;;;7.00;3.63;;;;;;;24.36;29.39;99683.09;6113308;23;20024;-96
2023/09/30 10:37:49;;;;;;;5.78;3.80;;;;;;;24.39;29.31;99687.88;6062173;23;20100;-94
2023/09/30 10:40:46;;;;;;;10.55;3.80;;;;;;;24.52;29.13;99690.59;6085942;23;20022;-94
2023/09/30 10:43:31;;;;;;;10.70;4.15;;;;;;;24.49;28.89;99680.25;6066886;23;20076;-93
2023/09/30 10:45:58;;;;;;;8.95;4.05;;;;;;;24.59;29.50;99654.97;6063843;23;20025;-92
2023/09/30 10:48:55;;;;;;;9.70;3.72;;;;;;;24.77;28.95;99691.19;6090645;23;20195;-92
2023/09/30 10:51:21;;;;;;;8.70;3.63;;;;;;;24.69;29.73;99667.41;6061029;23;20006;-91
2023/09/30 10:53:53;;;;;;;10.63;3.63;;;;;;;24.78;29.85;99673.53;6089463;23;19998;-91
2023/09/30 10:56:19;;;;;;;9.35;3.55;;;;;;;24.88;28.27;99667.47;6090601;23;20001;-91
2023/09/30 10:58:49;;;;;;;8.82;4.28;;;;;;;24.88;27.89;99663.91;6063328;23;20030;-91
2023/09/30 11:01:33;;;;;;;14.73;3.80;;;;;;;24.95;28.13;99658.59;6088604;23;20041;-94
2023/09/30 11:04:04;;;;;;;13.85;4.82;;;;;;;24.90;27.81;99653.34;6090614;23;20070;-92
2023/09/30 11:06:30;;;;;;;5.10;3.80;;;;;;;25.09;27.66;99653.41;6065196;23;20092;-94
2023/09/30 11:09:21;;;;;;;6.43;3.35;;;;;;;25.07;27.96;99636.44;6064125;23;20463;-91
2023/09/30 11:11:49;;;;;;;11.20;4.07;;;;;;;25.02;27.95;99650.47;6096544;23;19998;-91
2023/09/30 11:14:25;;;;;;;9.32;4.13;;;;;;;25.10;27.29;99643.97;6083272;23;20001;-91
2023/09/30 11:16:57;;;;;;;7.25;3.83;;;;;;;25.10;27.18;99643.16;6059544;23;20010;-91
2023/09/30 11:19:24;;;;;;;11.00;3.78;;;;;;;25.17;27.51;99641.38;6081786;23;20038;-93
2023/09/30 11:21:54;;;;;;;9.85;4.00;;;;;;;25.31;26.84;99640.09;6106166;23;20009;-92
2023/09/30 11:24:29;;;;;;;9.43;4.15;;;;;;;25.32;26.15;99647.22;6082817;23;20425;-93
2023/09/30 11:26:55;;;;;;;10.02;3.75;;;;;;;25.30;26.34;99631.03;6080700;23;20455;-91
2023/09/30 11:29:25;;;;;;;6.78;3.80;;;;;;;25.30;26.74;99625.53;6056345;23;19994;-92
2023/09/30 11:31:53;;;;;;;6.30;3.85;;;;;;;25.31;26.43;99624.34;6057296;23;20481;-91
2023/09/30 11:34:19;;;;;;;10.68;3.63;;;;;;;25.30;26.61;99633.00;6052958;23;20018;-92
2023/09/30 11:36:54;;;;;;;6.45;3.70;;;;;;;25.39;26.57;99645.41;6078845;23;20002;-92
2023/09/30 11:39:27;;;;;;;8.77;4.30;;;;;;;25.31;25.75;99638.16;6102178;23;20428;-92
2023/09/30 11:41:52;;;;;;;7.30;3.67;;;;;;;25.30;26.42;99633.81;6077104;23;20069;-91